WJA546 CYVR-KSFO
Flight info
| Callsign | WJA546 |
|---|---|
| Flight time | N/A |
| Altitude | 33000 |
| Route | VIXOR DCT ELMAA Q1 ETCHY DCT MLBEC BDEGA4 |
| Aircraft | B738/M-SDE2E3FGHIRWXY/LB1 |
Departure
| Time | 2026-05-05 00:59 |
|---|---|
| Airport | Vancouver International Airport (CYVR) |
Arrival
| Time | N/A |
|---|---|
| Airport | San Francisco International Airport (KSFO) |
| Time | Latitude | Longitude | Altitude | Speed | Heading |
|---|---|---|---|---|---|
| 2026-05-05 00:25 | 49.19294 | -123.18363 | 26 ft | 0 kts | 188° |
| 2026-05-05 00:42 | 49.19316 | -123.18357 | 23 ft | 4 kts | 188° |
| 2026-05-05 00:42 | 49.19337 | -123.18352 | 24 ft | 4 kts | 193° |
| 2026-05-05 00:42 | 49.19361 | -123.18338 | 23 ft | 4 kts | 231° |
| 2026-05-05 00:42 | 49.19367 | -123.18318 | 26 ft | 5 kts | 264° |
| 2026-05-05 00:43 | 49.19368 | -123.18352 | 26 ft | 4 kts | 278° |
| 2026-05-05 00:43 | 49.19373 | -123.18392 | 25 ft | 4 kts | 279° |
| 2026-05-05 00:43 | 49.19376 | -123.18424 | 23 ft | 4 kts | 277° |
| 2026-05-05 00:43 | 49.19379 | -123.18453 | 23 ft | 0 kts | 279° |
| 2026-05-05 00:48 | 49.19382 | -123.18476 | 25 ft | 4 kts | 279° |
| 2026-05-05 00:48 | 49.19389 | -123.18539 | 22 ft | 8 kts | 279° |
| 2026-05-05 00:49 | 49.19398 | -123.18632 | 22 ft | 8 kts | 278° |
| 2026-05-05 00:49 | 49.19382 | -123.18675 | 22 ft | 8 kts | 207° |
| 2026-05-05 00:49 | 49.19332 | -123.18695 | 23 ft | 7 kts | 193° |
| 2026-05-05 00:49 | 49.19268 | -123.18718 | 22 ft | 7 kts | 192° |
| 2026-05-05 00:50 | 49.19237 | -123.18728 | 22 ft | 7 kts | 192° |
| 2026-05-05 00:50 | 49.19190 | -123.18733 | 22 ft | 7 kts | 166° |
| 2026-05-05 00:50 | 49.19152 | -123.18690 | 23 ft | 7 kts | 140° |
| 2026-05-05 00:50 | 49.19109 | -123.18638 | 23 ft | 9 kts | 142° |
| 2026-05-05 00:51 | 49.19059 | -123.18579 | 23 ft | 10 kts | 142° |
| 2026-05-05 00:51 | 49.19002 | -123.18512 | 24 ft | 11 kts | 143° |
| 2026-05-05 00:51 | 49.18951 | -123.18423 | 22 ft | 11 kts | 110° |
| 2026-05-05 00:51 | 49.18935 | -123.18296 | 24 ft | 14 kts | 100° |
| 2026-05-05 00:52 | 49.18917 | -123.18138 | 23 ft | 17 kts | 98° |
| 2026-05-05 00:52 | 49.18897 | -123.17947 | 22 ft | 20 kts | 100° |
| 2026-05-05 00:52 | 49.18871 | -123.17726 | 22 ft | 22 kts | 100° |
| 2026-05-05 00:52 | 49.18843 | -123.17479 | 22 ft | 25 kts | 99° |
| 2026-05-05 00:53 | 49.18813 | -123.17211 | 22 ft | 27 kts | 100° |
| 2026-05-05 00:53 | 49.18781 | -123.16919 | 22 ft | 29 kts | 99° |
| 2026-05-05 00:53 | 49.18746 | -123.16623 | 24 ft | 28 kts | 100° |
| 2026-05-05 00:53 | 49.18718 | -123.16389 | 23 ft | 16 kts | 101° |
| 2026-05-05 00:54 | 49.18672 | -123.16244 | 22 ft | 15 kts | 130° |
| 2026-05-05 00:54 | 49.18632 | -123.16123 | 23 ft | 9 kts | 101° |
| 2026-05-05 00:54 | 49.18619 | -123.16061 | 23 ft | 5 kts | 128° |
| 2026-05-05 00:54 | 49.18591 | -123.16036 | 23 ft | 0 kts | 165° |
| 2026-05-05 00:57 | 49.18576 | -123.16033 | 24 ft | 6 kts | 176° |
| 2026-05-05 00:57 | 49.18518 | -123.16047 | 25 ft | 10 kts | 191° |
| 2026-05-05 00:57 | 49.18479 | -123.16132 | 23 ft | 12 kts | 272° |
| 2026-05-05 00:58 | 49.18502 | -123.16353 | 22 ft | 42 kts | 279° |
| 2026-05-05 00:58 | 49.18594 | -123.17187 | 24 ft | 114 kts | 280° |
| 2026-05-05 00:58 | 49.18765 | -123.18700 | 28 ft | 172 kts | 277° |
| 2026-05-05 00:58 | 49.18973 | -123.20663 | 378 ft | 201 kts | 278° |
| 2026-05-05 00:59 | 49.19201 | -123.22888 | 835 ft | 219 kts | 277° |
| 2026-05-05 00:59 | 49.19206 | -123.25307 | 1099 ft | 240 kts | 264° |
| 2026-05-05 00:59 | 49.19012 | -123.27898 | 1759 ft | 243 kts | 261° |
| 2026-05-05 00:59 | 49.18388 | -123.30181 | 2518 ft | 237 kts | 232° |
| 2026-05-05 01:00 | 49.17150 | -123.31871 | 3103 ft | 241 kts | 216° |
| 2026-05-05 01:00 | 49.15619 | -123.32950 | 3635 ft | 247 kts | 198° |
| 2026-05-05 01:00 | 49.13939 | -123.33610 | 4178 ft | 251 kts | 196° |
| 2026-05-05 01:00 | 49.12220 | -123.34228 | 4682 ft | 260 kts | 195° |
| 2026-05-05 01:01 | 49.10390 | -123.34878 | 5009 ft | 276 kts | 195° |
| 2026-05-05 01:01 | 49.08501 | -123.35549 | 5753 ft | 280 kts | 194° |
| 2026-05-05 01:01 | 49.06622 | -123.36217 | 6537 ft | 282 kts | 194° |
| 2026-05-05 01:01 | 49.04675 | -123.36913 | 7233 ft | 286 kts | 194° |
| 2026-05-05 01:02 | 49.02721 | -123.37614 | 7973 ft | 290 kts | 194° |
| 2026-05-05 01:02 | 49.00772 | -123.38315 | 8688 ft | 294 kts | 193° |
| 2026-05-05 01:02 | 48.98765 | -123.39038 | 9418 ft | 298 kts | 193° |
| 2026-05-05 01:02 | 48.96720 | -123.39774 | 10111 ft | 302 kts | 193° |
| 2026-05-05 01:03 | 48.94643 | -123.40523 | 10452 ft | 320 kts | 193° |
| 2026-05-05 01:03 | 48.92395 | -123.41333 | 10624 ft | 342 kts | 193° |
| 2026-05-05 01:03 | 48.90005 | -123.42194 | 10822 ft | 362 kts | 194° |
| 2026-05-05 01:03 | 48.87504 | -123.43094 | 11272 ft | 372 kts | 194° |
| 2026-05-05 01:04 | 48.84996 | -123.43995 | 11874 ft | 377 kts | 194° |
| 2026-05-05 01:04 | 48.79840 | -123.45844 | 13125 ft | 385 kts | 194° |
| 2026-05-05 01:04 | 48.77220 | -123.46783 | 13726 ft | 390 kts | 194° |
| 2026-05-05 01:05 | 48.74558 | -123.47734 | 14249 ft | 395 kts | 194° |
| 2026-05-05 01:05 | 48.71838 | -123.48389 | 14782 ft | 399 kts | 184° |
| 2026-05-05 01:05 | 48.69040 | -123.48390 | 15345 ft | 403 kts | 178° |
| 2026-05-05 01:05 | 48.66232 | -123.48238 | 15890 ft | 407 kts | 178° |
| 2026-05-05 01:06 | 48.63379 | -123.48058 | 16431 ft | 411 kts | 177° |
| 2026-05-05 01:06 | 48.60506 | -123.47879 | 16969 ft | 415 kts | 178° |
| 2026-05-05 01:06 | 48.57602 | -123.47708 | 17479 ft | 418 kts | 178° |
| 2026-05-05 01:06 | 48.54671 | -123.47547 | 18006 ft | 422 kts | 178° |
| 2026-05-05 01:07 | 48.51731 | -123.47395 | 18489 ft | 425 kts | 178° |
| 2026-05-05 01:07 | 48.48786 | -123.47249 | 18929 ft | 429 kts | 178° |
| 2026-05-05 01:07 | 48.45785 | -123.47104 | 19352 ft | 434 kts | 178° |
| 2026-05-05 01:07 | 48.42748 | -123.46958 | 19805 ft | 437 kts | 178° |
| 2026-05-05 01:08 | 48.39707 | -123.46814 | 20268 ft | 439 kts | 178° |